sensor_id;sensor_type;location;lat;lon;timestamp;pressure;altitude;pressure_sealevel;temperature;humidity
71567;BME280;59403;47.456;19.120;2022-12-18T00:00:49;101815.59;;;-2.26;100.00
71567;BME280;59403;47.456;19.120;2022-12-18T00:03:16;101819.87;;;-2.25;100.00
71567;BME280;59403;47.456;19.120;2022-12-18T00:05:47;101819.75;;;-2.20;100.00
71567;BME280;59403;47.456;19.120;2022-12-18T00:08:14;101832.66;;;-2.17;100.00
71567;BME280;59403;47.456;19.120;2022-12-18T00:10:43;101837.00;;;-2.18;100.00
71567;BME280;59403;47.456;19.120;2022-12-18T00:13:10;101842.31;;;-2.22;100.00
71567;BME280;59403;47.456;19.120;2022-12-18T00:15:38;101850.16;;;-2.25;100.00
71567;BME280;59403;47.456;19.120;2022-12-18T00:18:06;101851.97;;;-2.29;100.00
71567;BME280;59403;47.456;19.120;2022-12-18T00:20:36;101854.53;;;-2.28;100.00
71567;BME280;59403;47.456;19.120;2022-12-18T00:23:04;101864.13;;;-2.29;100.00
71567;BME280;59403;47.456;19.120;2022-12-18T00:25:32;101864.13;;;-2.31;100.00
71567;BME280;59403;47.456;19.120;2022-12-18T00:28:01;101869.47;;;-2.36;100.00
71567;BME280;59403;47.456;19.120;2022-12-18T00:30:28;101883.75;;;-2.53;100.00
71567;BME280;59403;47.456;19.120;2022-12-18T00:32:56;101883.75;;;-2.53;100.00
71567;BME280;59403;47.456;19.120;2022-12-18T00:35:23;101887.41;;;-2.62;100.00
71567;BME280;59403;47.456;19.120;2022-12-18T00:37:50;101891.50;;;-2.53;100.00
71567;BME280;59403;47.456;19.120;2022-12-18T00:40:18;101887.94;;;-2.48;100.00
71567;BME280;59403;47.456;19.120;2022-12-18T00:42:47;101869.78;;;-2.48;100.00
71567;BME280;59403;47.456;19.120;2022-12-18T00:45:24;101893.75;;;-2.40;100.00
71567;BME280;59403;47.456;19.120;2022-12-18T00:47:51;101895.41;;;-2.36;100.00
71567;BME280;59403;47.456;19.120;2022-12-18T00:50:19;101898.84;;;-2.35;100.00
71567;BME280;59403;47.456;19.120;2022-12-18T00:52:46;101896.34;;;-2.38;100.00
71567;BME280;59403;47.456;19.120;2022-12-18T00:55:13;101913.69;;;-2.40;100.00
71567;BME280;59403;47.456;19.120;2022-12-18T00:57:41;101914.69;;;-2.46;100.00
71567;BME280;59403;47.456;19.120;2022-12-18T01:00:10;101918.91;;;-2.42;100.00
71567;BME280;59403;47.456;19.120;2022-12-18T01:02:39;101919.81;;;-2.44;100.00
71567;BME280;59403;47.456;19.120;2022-12-18T01:05:07;101919.81;;;-2.44;100.00
71567;BME280;59403;47.456;19.120;2022-12-18T01:07:34;101925.91;;;-2.47;100.00
71567;BME280;59403;47.456;19.120;2022-12-18T01:10:01;101930.41;;;-2.53;100.00
71567;BME280;59403;47.456;19.120;2022-12-18T01:12:28;101943.38;;;-2.53;100.00
71567;BME280;59403;47.456;19.120;2022-12-18T01:14:56;101938.16;;;-2.52;100.00
71567;BME280;59403;47.456;19.120;2022-12-18T01:17:23;101939.06;;;-2.53;100.00
71567;BME280;59403;47.456;19.120;2022-12-18T01:19:51;101933.00;;;-2.53;100.00
71567;BME280;59403;47.456;19.120;2022-12-18T01:22:18;101939.09;;;-2.54;100.00
71567;BME280;59403;47.456;19.120;2022-12-18T01:24:45;101934.00;;;-2.59;100.00
71567;BME280;59403;47.456;19.120;2022-12-18T01:27:12;101942.69;;;-2.60;100.00
71567;BME280;59403;47.456;19.120;2022-12-18T01:29:39;101934.91;;;-2.60;100.00
71567;BME280;59403;47.456;19.120;2022-12-18T01:32:06;101948.72;;;-2.59;100.00
71567;BME280;59403;47.456;19.120;2022-12-18T01:34:33;101939.19;;;-2.59;100.00
71567;BME280;59403;47.456;19.120;2022-12-18T01:37:03;101948.66;;;-2.56;100.00
71567;BME280;59403;47.456;19.120;2022-12-18T01:39:31;101946.97;;;-2.59;100.00
71567;BME280;59403;47.456;19.120;2022-12-18T01:41:58;101952.06;;;-2.54;100.00
71567;BME280;59403;47.456;19.120;2022-12-18T01:44:58;101952.88;;;-2.52;100.00
71567;BME280;59403;47.456;19.120;2022-12-18T01:47:29;101951.97;;;-2.51;100.00
71567;BME280;59403;47.456;19.120;2022-12-18T01:49:59;101952.69;;;-2.45;100.00
71567;BME280;59403;47.456;19.120;2022-12-18T01:52:30;101964.78;;;-2.44;100.00
71567;BME280;59403;47.456;19.120;2022-12-18T01:54:58;101964.66;;;-2.39;100.00
71567;BME280;59403;47.456;19.120;2022-12-18T01:57:26;101968.97;;;-2.38;100.00
71567;BME280;59403;47.456;19.120;2022-12-18T01:59:57;101970.66;;;-2.37;100.00
71567;BME280;59403;47.456;19.120;2022-12-18T02:05:04;101977.62;;;-2.39;100.00
71567;BME280;59403;47.456;19.120;2022-12-18T02:07:54;101978.44;;;-2.37;100.00
71567;BME280;59403;47.456;19.120;2022-12-18T02:10:35;101984.41;;;-2.34;100.00
71567;BME280;59403;47.456;19.120;2022-12-18T02:13:11;101985.22;;;-2.32;100.00
71567;BME280;59403;47.456;19.120;2022-12-18T02:15:45;101980.09;;;-2.35;100.00
71567;BME280;59403;47.456;19.120;2022-12-18T02:18:19;101994.69;;;-2.31;100.00
71567;BME280;59403;47.456;19.120;2022-12-18T02:20:49;101995.59;;;-2.32;100.00
71567;BME280;59403;47.456;19.120;2022-12-18T02:23:31;101993.06;;;-2.33;100.00
71567;BME280;59403;47.456;19.120;2022-12-18T02:26:25;101993.06;;;-2.33;100.00
71567;BME280;59403;47.456;19.120;2022-12-18T02:28:56;101988.78;;;-2.36;100.00
71567;BME280;59403;47.456;19.120;2022-12-18T02:31:27;101994.91;;;-2.38;100.00
71567;BME280;59403;47.456;19.120;2022-12-18T02:33:56;101999.31;;;-2.42;100.00
71567;BME280;59403;47.456;19.120;2022-12-18T02:36:26;102005.44;;;-2.46;100.00
71567;BME280;59403;47.456;19.120;2022-12-18T02:38:55;102006.41;;;-2.50;100.00
71567;BME280;59403;47.456;19.120;2022-12-18T02:41:25;102011.66;;;-2.53;100.00
71567;BME280;59403;47.456;19.120;2022-12-18T02:43:56;102016.94;;;-2.56;100.00
71567;BME280;59403;47.456;19.120;2022-12-18T02:46:30;102023.88;;;-2.58;100.00
71567;BME280;59403;47.456;19.120;2022-12-18T02:49:05;102017.06;;;-2.62;100.00
71567;BME280;59403;47.456;19.120;2022-12-18T02:51:38;102023.19;;;-2.64;100.00
71567;BME280;59403;47.456;19.120;2022-12-18T02:54:10;102014.56;;;-2.66;100.00
71567;BME280;59403;47.456;19.120;2022-12-18T02:56:48;102022.34;;;-2.66;100.00
71567;BME280;59403;47.456;19.120;2022-12-18T02:59:19;102025.97;;;-2.73;100.00
71567;BME280;59403;47.456;19.120;2022-12-18T03:01:51;102028.75;;;-2.82;100.00
71567;BME280;59403;47.456;19.120;2022-12-18T03:04:25;102033.06;;;-2.83;100.00
71567;BME280;59403;47.456;19.120;2022-12-18T03:06:56;102045.09;;;-2.79;100.00
71567;BME280;59403;47.456;19.120;2022-12-18T03:09:30;102040.81;;;-2.81;100.00
71567;BME280;59403;47.456;19.120;2022-12-18T03:12:04;102041.72;;;-2.82;100.00
71567;BME280;59403;47.456;19.120;2022-12-18T03:14:53;102049.47;;;-2.82;100.00
71567;BME280;59403;47.456;19.120;2022-12-18T03:17:23;102053.00;;;-2.86;100.00
71567;BME280;59403;47.456;19.120;2022-12-18T03:19:53;102053.87;;;-2.86;100.00
71567;BME280;59403;47.456;19.120;2022-12-18T03:22:23;102053.00;;;-2.86;100.00
71567;BME280;59403;47.456;19.120;2022-12-18T03:24:54;102059.03;;;-2.84;100.00
71567;BME280;59403;47.456;19.120;2022-12-18T03:27:25;102062.38;;;-2.79;100.00
71567;BME280;59403;47.456;19.120;2022-12-18T03:30:03;102065.00;;;-2.81;100.00
71567;BME280;59403;47.456;19.120;2022-12-18T03:32:38;102072.66;;;-2.76;100.00
71567;BME280;59403;47.456;19.120;2022-12-18T03:35:08;102064.88;;;-2.76;100.00
71567;BME280;59403;47.456;19.120;2022-12-18T03:37:37;102078.75;;;-2.77;100.00
71567;BME280;59403;47.456;19.120;2022-12-18T03:40:06;102082.25;;;-2.78;100.00
71567;BME280;59403;47.456;19.120;2022-12-18T03:42:38;102089.19;;;-2.80;100.00
71567;BME280;59403;47.456;19.120;2022-12-18T03:45:12;102092.59;;;-2.78;100.00
71567;BME280;59403;47.456;19.120;2022-12-18T03:47:47;102091.72;;;-2.77;100.00
71567;BME280;59403;47.456;19.120;2022-12-18T03:50:20;102091.78;;;-2.80;100.00
71567;BME280;59403;47.456;19.120;2022-12-18T03:52:52;102098.72;;;-2.82;100.00
71567;BME280;59403;47.456;19.120;2022-12-18T03:55:22;102086.66;;;-2.85;100.00
71567;BME280;59403;47.456;19.120;2022-12-18T03:57:52;102092.78;;;-2.87;100.00
71567;BME280;59403;47.456;19.120;2022-12-18T04:00:20;102088.47;;;-2.88;100.00
71567;BME280;59403;47.456;19.120;2022-12-18T04:02:49;102088.53;;;-2.91;100.00
71567;BME280;59403;47.456;19.120;2022-12-18T04:05:18;102086.03;;;-2.94;100.00
71567;BME280;59403;47.456;19.120;2022-12-18T04:07:47;102098.13;;;-2.95;100.00
71567;BME280;59403;47.456;19.120;2022-12-18T04:10:16;102103.34;;;-2.96;100.00
71567;BME280;59403;47.456;19.120;2022-12-18T04:12:43;102104.31;;;-3.02;100.00
71567;BME280;59403;47.456;19.120;2022-12-18T04:15:12;102098.37;;;-3.08;100.00
71567;BME280;59403;47.456;19.120;2022-12-18T04:17:46;102102.69;;;-3.06;100.00
71567;BME280;59403;47.456;19.120;2022-12-18T04:20:15;102106.19;;;-3.10;100.00
71567;BME280;59403;47.456;19.120;2022-12-18T04:22:42;102108.03;;;-3.15;100.00
71567;BME280;59403;47.456;19.120;2022-12-18T04:25:09;102121.03;;;-3.19;100.00
71567;BME280;59403;47.456;19.120;2022-12-18T04:27:36;102110.69;;;-3.19;100.00
71567;BME280;59403;47.456;19.120;2022-12-18T04:30:04;102114.22;;;-3.23;100.00
71567;BME280;59403;47.456;19.120;2022-12-18T04:32:33;102115.06;;;-3.23;100.00
71567;BME280;59403;47.456;19.120;2022-12-18T04:35:00;102113.47;;;-3.28;100.00
71567;BME280;59403;47.456;19.120;2022-12-18T04:37:26;102116.91;;;-3.29;100.00
71567;BME280;59403;47.456;19.120;2022-12-18T04:39:53;102120.47;;;-3.35;100.00
71567;BME280;59403;47.456;19.120;2022-12-18T04:42:20;102123.09;;;-3.36;100.00
71567;BME280;59403;47.456;19.120;2022-12-18T04:44:47;102130.09;;;-3.41;100.00
71567;BME280;59403;47.456;19.120;2022-12-18T04:47:14;102127.53;;;-3.43;100.00
71567;BME280;59403;47.456;19.120;2022-12-18T04:49:42;102141.38;;;-3.44;100.00
71567;BME280;59403;47.456;19.120;2022-12-18T04:52:09;102142.25;;;-3.47;100.00
71567;BME280;59403;47.456;19.120;2022-12-18T04:54:36;102150.06;;;-3.48;100.00
71567;BME280;59403;47.456;19.120;2022-12-18T04:57:03;102150.12;;;-3.53;100.00
71567;BME280;59403;47.456;19.120;2022-12-18T04:59:30;102158.81;;;-3.55;100.00
71567;BME280;59403;47.456;19.120;2022-12-18T05:01:57;102158.78;;;-3.54;100.00
71567;BME280;59403;47.456;19.120;2022-12-18T05:04:24;102153.66;;;-3.57;100.00
71567;BME280;59403;47.456;19.120;2022-12-18T05:06:52;102157.09;;;-3.58;100.00
71567;BME280;59403;47.456;19.120;2022-12-18T05:09:20;102157.16;;;-3.61;100.00
71567;BME280;59403;47.456;19.120;2022-12-18T05:11:47;102165.75;;;-3.59;100.00
71567;BME280;59403;47.456;19.120;2022-12-18T05:14:14;102169.28;;;-3.63;100.00
71567;BME280;59403;47.456;19.120;2022-12-18T05:16:41;102171.06;;;-3.66;100.00
71567;BME280;59403;47.456;19.120;2022-12-18T05:19:08;102173.69;;;-3.69;100.00
71567;BME280;59403;47.456;19.120;2022-12-18T05:21:35;102171.97;;;-3.69;100.00
71567;BME280;59403;47.456;19.120;2022-12-18T05:24:04;102174.56;;;-3.69;100.00
71567;BME280;59403;47.456;19.120;2022-12-18T05:26:31;102178.06;;;-3.73;100.00
71567;BME280;59403;47.456;19.120;2022-12-18T05:28:58;102175.44;;;-3.71;100.00
71567;BME280;59403;47.456;19.120;2022-12-18T05:31:25;102179.00;;;-3.78;100.00
71567;BME280;59403;47.456;19.120;2022-12-18T05:33:52;102189.37;;;-3.78;100.00
71567;BME280;59403;47.456;19.120;2022-12-18T05:36:19;102199.75;;;-3.80;100.00
71567;BME280;59403;47.456;19.120;2022-12-18T05:38:46;102198.88;;;-3.80;100.00
71567;BME280;59403;47.456;19.120;2022-12-18T05:41:14;102204.06;;;-3.82;100.00
71567;BME280;59403;47.456;19.120;2022-12-18T05:43:42;102203.22;;;-3.82;100.00
71567;BME280;59403;47.456;19.120;2022-12-18T05:46:13;102212.72;;;-3.83;100.00
71567;BME280;59403;47.456;19.120;2022-12-18T05:48:40;102208.41;;;-3.81;100.00
71567;BME280;59403;47.456;19.120;2022-12-18T05:51:09;102207.56;;;-3.83;100.00
71567;BME280;59403;47.456;19.120;2022-12-18T05:53:37;102204.06;;;-3.80;100.00
71567;BME280;59403;47.456;19.120;2022-12-18T05:56:06;102211.00;;;-3.84;100.00
71567;BME280;59403;47.456;19.120;2022-12-18T05:58:35;102210.22;;;-3.89;100.00
71567;BME280;59403;47.456;19.120;2022-12-18T06:01:08;102221.47;;;-3.90;100.00
71567;BME280;59403;47.456;19.120;2022-12-18T06:03:35;102218.03;;;-3.92;100.00
71567;BME280;59403;47.456;19.120;2022-12-18T06:06:03;102215.53;;;-3.96;100.00
71567;BME280;59403;47.456;19.120;2022-12-18T06:08:30;102222.41;;;-3.95;100.00
71567;BME280;59403;47.456;19.120;2022-12-18T06:10:57;102229.28;;;-3.96;100.00
71567;BME280;59403;47.456;19.120;2022-12-18T06:13:24;102225.88;;;-3.98;100.00
71567;BME280;59403;47.456;19.120;2022-12-18T06:15:52;102228.44;;;-3.98;100.00
71567;BME280;59403;47.456;19.120;2022-12-18T06:18:19;102225.12;;;-4.06;100.00
71567;BME280;59403;47.456;19.120;2022-12-18T06:20:54;102225.97;;;-4.04;100.00
71567;BME280;59403;47.456;19.120;2022-12-18T06:23:21;102226.00;;;-4.05;100.00
71567;BME280;59403;47.456;19.120;2022-12-18T06:25:48;102225.16;;;-4.09;100.00
71567;BME280;59403;47.456;19.120;2022-12-18T06:28:15;102240.75;;;-4.12;100.00
71567;BME280;59403;47.456;19.120;2022-12-18T06:30:45;102250.25;;;-4.14;100.00
71567;BME280;59403;47.456;19.120;2022-12-18T06:33:13;102250.25;;;-4.14;100.00
71567;BME280;59403;47.456;19.120;2022-12-18T06:35:40;102262.31;;;-4.14;100.00
71567;BME280;59403;47.456;19.120;2022-12-18T06:38:07;102264.03;;;-4.12;100.00
71567;BME280;59403;47.456;19.120;2022-12-18T06:40:36;102266.59;;;-4.12;100.00
71567;BME280;59403;47.456;19.120;2022-12-18T06:43:04;102278.66;;;-4.12;100.00
71567;BME280;59403;47.456;19.120;2022-12-18T06:45:31;102282.13;;;-4.15;100.00
71567;BME280;59403;47.456;19.120;2022-12-18T06:47:58;102283.87;;;-4.14;100.00
71567;BME280;59403;47.456;19.120;2022-12-18T06:50:26;102290.75;;;-4.13;100.00
71567;BME280;59403;47.456;19.120;2022-12-18T06:52:53;102288.13;;;-4.11;100.00
71567;BME280;59403;47.456;19.120;2022-12-18T06:55:20;102292.34;;;-4.04;100.00
71567;BME280;59403;47.456;19.120;2022-12-18T06:57:47;102287.22;;;-4.07;100.00
71567;BME280;59403;47.456;19.120;2022-12-18T07:00:14;102283.66;;;-3.99;100.00
71567;BME280;59403;47.456;19.120;2022-12-18T07:02:41;102294.91;;;-4.01;100.00
71567;BME280;59403;47.456;19.120;2022-12-18T07:05:08;102298.31;;;-3.99;100.00
71567;BME280;59403;47.456;19.120;2022-12-18T07:07:37;102309.53;;;-3.99;100.00
71567;BME280;59403;47.456;19.120;2022-12-18T07:10:04;102314.75;;;-4.02;100.00
71567;BME280;59403;47.456;19.120;2022-12-18T07:12:31;102319.13;;;-4.05;100.00
71567;BME280;59403;47.456;19.120;2022-12-18T07:14:59;102315.56;;;-3.97;100.00
71567;BME280;59403;47.456;19.120;2022-12-18T07:17:25;102327.59;;;-3.96;100.00
71567;BME280;59403;47.456;19.120;2022-12-18T07:19:52;102331.06;;;-3.95;100.00
71567;BME280;59403;47.456;19.120;2022-12-18T07:22:22;102337.06;;;-3.93;100.00
71567;BME280;59403;47.456;19.120;2022-12-18T07:24:50;102337.91;;;-3.90;100.00
71567;BME280;59403;47.456;19.120;2022-12-18T07:27:17;102343.06;;;-3.90;100.00
71567;BME280;59403;47.456;19.120;2022-12-18T07:29:45;102342.16;;;-3.87;100.00
71567;BME280;59403;47.456;19.120;2022-12-18T07:32:14;102341.22;;;-3.82;100.00
71567;BME280;59403;47.456;19.120;2022-12-18T07:34:41;102345.47;;;-3.76;100.00
71567;BME280;59403;47.456;19.120;2022-12-18T07:37:08;102358.38;;;-3.70;100.00
71567;BME280;59403;47.456;19.120;2022-12-18T07:39:35;102360.03;;;-3.68;100.00
71567;BME280;59403;47.456;19.120;2022-12-18T07:42:04;102365.16;;;-3.65;100.00
71567;BME280;59403;47.456;19.120;2022-12-18T07:44:48;102365.16;;;-3.63;100.00
71567;BME280;59403;47.456;19.120;2022-12-18T07:47:15;102364.19;;;-3.56;100.00
71567;BME280;59403;47.456;19.120;2022-12-18T07:49:42;102372.81;;;-3.56;100.00
71567;BME280;59403;47.456;19.120;2022-12-18T07:52:08;102370.31;;;-3.60;100.00
71567;BME280;59403;47.456;19.120;2022-12-18T07:54:37;102374.53;;;-3.56;100.00
71567;BME280;59403;47.456;19.120;2022-12-18T07:57:06;102383.22;;;-3.59;100.00
71567;BME280;59403;47.456;19.120;2022-12-18T07:59:32;102390.03;;;-3.50;100.00
71567;BME280;59403;47.456;19.120;2022-12-18T08:02:00;102390.78;;;-3.43;100.00
71567;BME280;59403;47.456;19.120;2022-12-18T08:04:41;102398.53;;;-3.42;100.00
71567;BME280;59403;47.456;19.120;2022-12-18T08:07:08;102415.69;;;-3.35;100.00
71567;BME280;59403;47.456;19.120;2022-12-18T08:09:35;102400.16;;;-3.35;100.00
71567;BME280;59403;47.456;19.120;2022-12-18T08:12:02;102408.69;;;-3.25;100.00
71567;BME280;59403;47.456;19.120;2022-12-18T08:14:30;102402.56;;;-3.20;100.00
71567;BME280;59403;47.456;19.120;2022-12-18T08:16:57;102414.50;;;-3.10;100.00
71567;BME280;59403;47.456;19.120;2022-12-18T08:19:24;102407.47;;;-3.02;100.00
71567;BME280;59403;47.456;19.120;2022-12-18T08:21:51;102417.78;;;-2.99;100.00
71567;BME280;59403;47.456;19.120;2022-12-18T08:24:18;102404.81;;;-2.99;100.00
71567;BME280;59403;47.456;19.120;2022-12-18T08:26:45;102414.22;;;-2.90;100.00
71567;BME280;59403;47.456;19.120;2022-12-18T08:29:12;102416.84;;;-2.93;100.00
71567;BME280;59403;47.456;19.120;2022-12-18T08:31:40;102417.56;;;-2.84;100.00
71567;BME280;59403;47.456;19.120;2022-12-18T08:34:07;102416.63;;;-2.78;100.00
71567;BME280;59403;47.456;19.120;2022-12-18T08:36:35;102425.22;;;-2.75;100.00
71567;BME280;59403;47.456;19.120;2022-12-18T08:39:02;102428.56;;;-2.68;100.00
71567;BME280;59403;47.456;19.120;2022-12-18T08:41:29;102436.28;;;-2.65;100.00
71567;BME280;59403;47.456;19.120;2022-12-18T08:43:55;102426.69;;;-2.60;100.00
71567;BME280;59403;47.456;19.120;2022-12-18T08:46:42;102425.81;;;-2.58;100.00
71567;BME280;59403;47.456;19.120;2022-12-18T08:49:11;102425.66;;;-2.49;100.00
71567;BME280;59403;47.456;19.120;2022-12-18T08:51:38;102429.84;;;-2.40;100.00
71567;BME280;59403;47.456;19.120;2022-12-18T08:54:09;102428.88;;;-2.36;100.00
71567;BME280;59403;47.456;19.120;2022-12-18T08:56:37;102432.34;;;-2.36;100.00
71567;BME280;59403;47.456;19.120;2022-12-18T08:59:04;102434.84;;;-2.29;100.00
71567;BME280;59403;47.456;19.120;2022-12-18T09:01:31;102439.09;;;-2.25;100.00
71567;BME280;59403;47.456;19.120;2022-12-18T09:03:59;102434.78;;;-2.26;100.00
71567;BME280;59403;47.456;19.120;2022-12-18T09:06:26;102435.47;;;-2.15;100.00
71567;BME280;59403;47.456;19.120;2022-12-18T09:08:53;102447.50;;;-2.11;100.00
71567;BME280;59403;47.456;19.120;2022-12-18T09:11:23;102450.87;;;-2.08;100.00
71567;BME280;59403;47.456;19.120;2022-12-18T09:13:51;102450.00;;;-2.05;100.00
71567;BME280;59403;47.456;19.120;2022-12-18T09:16:18;102451.59;;;-1.98;100.00
71567;BME280;59403;47.456;19.120;2022-12-18T09:18:46;102452.38;;;-1.93;100.00
71567;BME280;59403;47.456;19.120;2022-12-18T09:21:15;102453.09;;;-1.87;100.00
71567;BME280;59403;47.456;19.120;2022-12-18T09:23:43;102461.59;;;-1.79;100.00
71567;BME280;59403;47.456;19.120;2022-12-18T09:26:10;102453.66;;;-1.71;100.00
71567;BME280;59403;47.456;19.120;2022-12-18T09:28:37;102454.34;;;-1.60;100.00
71567;BME280;59403;47.456;19.120;2022-12-18T09:31:05;102447.34;;;-1.57;100.00
71567;BME280;59403;47.456;19.120;2022-12-18T09:33:33;102444.63;;;-1.52;100.00
71567;BME280;59403;47.456;19.120;2022-12-18T09:36:01;102450.69;;;-1.52;99.94
71567;BME280;59403;47.456;19.120;2022-12-18T09:38:30;102448.75;;;-1.42;100.00
71567;BME280;59403;47.456;19.120;2022-12-18T09:41:03;102464.19;;;-1.35;99.99
71567;BME280;59403;47.456;19.120;2022-12-18T09:43:36;102454.63;;;-1.33;99.05
71567;BME280;59403;47.456;19.120;2022-12-18T09:46:10;102461.50;;;-1.29;99.13
71567;BME280;59403;47.456;19.120;2022-12-18T09:48:41;102450.94;;;-1.23;99.17
71567;BME280;59403;47.456;19.120;2022-12-18T09:51:13;102450.84;;;-1.17;98.68
71567;BME280;59403;47.456;19.120;2022-12-18T09:53:46;102447.25;;;-1.12;98.33
71567;BME280;59403;47.456;19.120;2022-12-18T09:56:17;102459.44;;;-1.15;97.45
71567;BME280;59403;47.456;19.120;2022-12-18T09:58:50;102453.34;;;-1.13;98.65
71567;BME280;59403;47.456;19.120;2022-12-18T10:01:21;102452.59;;;-1.19;97.33
71567;BME280;59403;47.456;19.120;2022-12-18T10:03:49;102448.16;;;-1.13;97.00
71567;BME280;59403;47.456;19.120;2022-12-18T10:06:21;102446.28;;;-1.07;97.25
71567;BME280;59403;47.456;19.120;2022-12-18T10:08:58;102444.63;;;-1.11;97.44
71567;BME280;59403;47.456;19.120;2022-12-18T10:11:38;102443.72;;;-1.08;97.11
71567;BME280;59403;47.456;19.120;2022-12-18T10:14:14;102437.53;;;-1.03;96.76
71567;BME280;59403;47.456;19.120;2022-12-18T10:16:53;102442.63;;;-0.98;97.09
71567;BME280;59403;47.456;19.120;2022-12-18T10:19:35;102447.75;;;-0.95;96.42
71567;BME280;59403;47.456;19.120;2022-12-18T10:22:14;102446.84;;;-0.93;96.89
71567;BME280;59403;47.456;19.120;2022-12-18T10:24:52;102445.84;;;-0.87;95.57
71567;BME280;59403;47.456;19.120;2022-12-18T10:27:23;102434.56;;;-0.88;96.59
71567;BME280;59403;47.456;19.120;2022-12-18T10:29:52;102441.31;;;-0.79;96.52
71567;BME280;59403;47.456;19.120;2022-12-18T10:32:27;102438.84;;;-0.84;94.85
71567;BME280;59403;47.456;19.120;2022-12-18T10:34:56;102439.63;;;-0.80;94.56
71567;BME280;59403;47.456;19.120;2022-12-18T10:37:25;102436.03;;;-0.75;95.10
71567;BME280;59403;47.456;19.120;2022-12-18T10:40:09;102435.09;;;-0.72;95.03
71567;BME280;59403;47.456;19.120;2022-12-18T10:42:37;102428.94;;;-0.68;93.65
71567;BME280;59403;47.456;19.120;2022-12-18T10:45:10;102434.03;;;-0.65;94.42
71567;BME280;59403;47.456;19.120;2022-12-18T10:47:42;102434.88;;;-0.63;93.24
71567;BME280;59403;47.456;19.120;2022-12-18T10:50:19;102434.69;;;-0.56;90.92
71567;BME280;59403;47.456;19.120;2022-12-18T10:52:54;102439.00;;;-0.55;91.58
71567;BME280;59403;47.456;19.120;2022-12-18T10:55:24;102437.31;;;-0.56;92.36
71567;BME280;59403;47.456;19.120;2022-12-18T10:57:53;102435.53;;;-0.55;91.78
71567;BME280;59403;47.456;19.120;2022-12-18T11:00:25;102437.25;;;-0.54;91.37
71567;BME280;59403;47.456;19.120;2022-12-18T11:02:53;102434.56;;;-0.51;91.15
71567;BME280;59403;47.456;19.120;2022-12-18T11:05:29;102440.31;;;-0.37;91.93
71567;BME280;59403;47.456;19.120;2022-12-18T11:07:56;102429.94;;;-0.39;90.08
71567;BME280;59403;47.456;19.120;2022-12-18T11:10:30;102442.78;;;-0.33;90.79
71567;BME280;59403;47.456;19.120;2022-12-18T11:13:10;102431.53;;;-0.33;90.06
71567;BME280;59403;47.456;19.120;2022-12-18T11:15:40;102432.38;;;-0.33;90.27
71567;BME280;59403;47.456;19.120;2022-12-18T11:18:16;102425.28;;;-0.26;90.44
71567;BME280;59403;47.456;19.120;2022-12-18T11:20:51;102426.03;;;-0.21;89.20
71567;BME280;59403;47.456;19.120;2022-12-18T11:23:19;102428.62;;;-0.21;90.72
71567;BME280;59403;47.456;19.120;2022-12-18T11:25:55;102424.19;;;-0.19;88.64
71567;BME280;59403;47.456;19.120;2022-12-18T11:28:29;102417.16;;;-0.14;88.99
71567;BME280;59403;47.456;19.120;2022-12-18T11:31:20;102420.63;;;-0.15;89.87
71567;BME280;59403;47.456;19.120;2022-12-18T11:33:52;102418.75;;;-0.10;88.12
71567;BME280;59403;47.456;19.120;2022-12-18T11:36:22;102415.16;;;-0.05;88.18
71567;BME280;59403;47.456;19.120;2022-12-18T11:38:50;102415.88;;;0.00;89.05
71567;BME280;59403;47.456;19.120;2022-12-18T11:41:24;102403.84;;;-0.04;87.39
71567;BME280;59403;47.456;19.120;2022-12-18T11:44:18;102403.00;;;-0.04;87.97
71567;BME280;59403;47.456;19.120;2022-12-18T11:46:53;102412.31;;;0.05;87.38
71567;BME280;59403;47.456;19.120;2022-12-18T11:49:25;102404.34;;;0.09;87.30
71567;BME280;59403;47.456;19.120;2022-12-18T11:51:57;102405.31;;;0.07;87.69
71567;BME280;59403;47.456;19.120;2022-12-18T11:54:27;102408.66;;;0.12;85.44
71567;BME280;59403;47.456;19.120;2022-12-18T11:57:02;102409.37;;;0.17;86.17
71567;BME280;59403;47.456;19.120;2022-12-18T11:59:37;102401.47;;;0.20;86.79
71567;BME280;59403;47.456;19.120;2022-12-18T12:02:23;102396.25;;;0.20;86.45
71567;BME280;59403;47.456;19.120;2022-12-18T12:07:53;102399.53;;;0.28;85.41
71567;BME280;59403;47.456;19.120;2022-12-18T12:10:42;102398.47;;;0.33;85.34
71567;BME280;59403;47.456;19.120;2022-12-18T12:13:27;102389.87;;;0.30;86.26
71567;BME280;59403;47.456;19.120;2022-12-18T12:16:11;102394.25;;;0.29;86.08
71567;BME280;59403;47.456;19.120;2022-12-18T12:19:06;102398.41;;;0.36;85.36
71567;BME280;59403;47.456;19.120;2022-12-18T12:21:40;102404.59;;;0.32;86.41
71567;BME280;59403;47.456;19.120;2022-12-18T12:24:22;102389.87;;;0.30;86.48
71567;BME280;59403;47.456;19.120;2022-12-18T12:27:02;102388.94;;;0.32;86.51
71567;BME280;59403;47.456;19.120;2022-12-18T12:29:45;102386.97;;;0.42;86.54
71567;BME280;59403;47.456;19.120;2022-12-18T12:32:22;102393.91;;;0.41;85.99
71567;BME280;59403;47.456;19.120;2022-12-18T12:35:05;102398.88;;;0.49;86.46
71567;BME280;59403;47.456;19.120;2022-12-18T12:37:43;102395.44;;;0.48;86.71
71567;BME280;59403;47.456;19.120;2022-12-18T12:40:16;102401.38;;;0.53;85.45
71567;BME280;59403;47.456;19.120;2022-12-18T12:42:51;102403.31;;;0.47;85.92
71567;BME280;59403;47.456;19.120;2022-12-18T12:45:42;102403.94;;;0.55;86.41
71567;BME280;59403;47.456;19.120;2022-12-18T12:48:19;102399.44;;;0.60;85.86
71567;BME280;59403;47.456;19.120;2022-12-18T12:50:48;102401.12;;;0.62;85.04
71567;BME280;59403;47.456;19.120;2022-12-18T12:53:23;102412.31;;;0.66;85.26
71567;BME280;59403;47.456;19.120;2022-12-18T12:55:53;102401.06;;;0.64;85.81